Time;durP1;ratioP1;P1;durP2;ratioP2;P2;SDS_P1;SDS_P2;PMS_P1;PMS_P2;Temp;Humidity;BMP_temperature;BMP_pressure;BME280_temperature;BME280_humidity;BME280_pressure;Samples;Min_cycle;Max_cycle;Signal;HPM_P1;HPM_P2
2021/09/07 00:01:14;;;;;;;14.00;7.80;;;;;;;9.20;76.66;99276.88;111902;1213;22443;-79
2021/09/07 00:03:55;;;;;;;13.70;7.30;;;;;;;9.18;76.87;99277.46;111884;1212;22460;-80
2021/09/07 00:06:36;;;;;;;12.80;7.30;;;;;;;9.09;76.16;99273.41;111875;1212;22621;-80
2021/09/07 00:09:03;;;;;;;12.60;7.10;;;;;;;9.01;76.51;99275.86;111865;1218;22569;-80
2021/09/07 00:11:44;;;;;;;13.30;8.00;;;;;;;8.99;76.79;99277.08;112072;1212;22441;-80
2021/09/07 00:14:25;;;;;;;14.20;8.50;;;;;;;8.90;76.89;99274.48;112094;1211;25183;-80
2021/09/07 00:16:52;;;;;;;13.80;8.50;;;;;;;8.84;77.07;99273.54;111874;1211;22466;-80
2021/09/07 00:19:34;;;;;;;14.40;7.90;;;;;;;8.82;77.40;99269.45;111971;1212;22504;-80
2021/09/07 00:22:01;;;;;;;14.80;8.30;;;;;;;8.81;77.68;99267.83;111881;1211;22601;-80
2021/09/07 00:24:28;;;;;;;14.60;8.80;;;;;;;8.80;77.68;99264.35;111919;1210;23034;-80
2021/09/07 00:27:09;;;;;;;15.90;9.20;;;;;;;8.79;78.05;99265.23;111881;1211;24297;-79
2021/09/07 00:29:36;;;;;;;15.60;9.20;;;;;;;8.78;78.39;99263.64;111871;1211;22572;-80
2021/09/07 00:32:03;;;;;;;14.90;8.30;;;;;;;8.79;78.43;99265.73;111925;1212;24099;-80
2021/09/07 00:34:32;;;;;;;14.70;7.90;;;;;;;8.80;78.40;99265.58;112000;1211;25100;-79
2021/09/07 00:37:13;;;;;;;15.50;8.30;;;;;;;8.79;78.44;99262.11;111960;1211;24588;-80
2021/09/07 00:39:40;;;;;;;15.10;8.10;;;;;;;8.81;78.50;99259.35;111899;1211;22463;-80
2021/09/07 00:42:07;;;;;;;14.20;7.90;;;;;;;8.84;78.39;99257.12;112052;1211;22463;-80
2021/09/07 00:44:34;;;;;;;14.30;8.80;;;;;;;8.82;78.38;99253.65;111873;1212;25141;-80
2021/09/07 00:47:07;;;;;;;15.10;8.50;;;;;;;8.82;78.31;99257.91;111922;1212;25273;-80
2021/09/07 00:49:47;;;;;;;14.90;7.90;;;;;;;8.82;78.07;99254.48;111884;1212;25275;-80
2021/09/07 00:52:14;;;;;;;11.90;7.50;;;;;;;8.79;78.21;99257.89;111939;1211;22538;-80
2021/09/07 00:54:45;;;;;;;16.00;8.60;;;;;;;8.80;78.39;99256.02;111892;1218;25084;-80
2021/09/07 00:57:13;;;;;;;15.40;8.30;;;;;;;8.78;78.46;99254.75;112062;1212;25260;-80
2021/09/07 00:59:54;;;;;;;16.10;9.50;;;;;;;8.78;78.46;99254.91;111938;1212;22478;-80
2021/09/07 01:02:35;;;;;;;13.10;8.40;;;;;;;8.80;78.39;99253.09;112095;1212;24125;-80
2021/09/07 01:05:17;;;;;;;12.80;7.80;;;;;;;8.82;78.33;99254.66;111857;1212;25181;-80
2021/09/07 01:07:45;;;;;;;12.80;7.90;;;;;;;8.84;78.07;99258.63;112045;1212;25056;-80
2021/09/07 01:10:13;;;;;;;18.20;8.20;;;;;;;8.88;77.97;99257.98;111941;1212;24162;-80
2021/09/07 01:12:56;;;;;;;14.70;8.20;;;;;;;8.89;78.03;99248.04;111885;1212;22449;-79
2021/09/07 01:15:37;;;;;;;19.80;9.50;;;;;;;8.90;77.99;99245.52;111949;1211;24672;-80
2021/09/07 01:18:18;;;;;;;14.70;8.20;;;;;;;8.89;78.02;99246.23;112124;1212;25145;-80
2021/09/07 01:20:46;;;;;;;16.90;9.10;;;;;;;8.89;78.04;99241.52;111973;1211;23752;-79
2021/09/07 01:23:13;;;;;;;14.80;8.40;;;;;;;8.91;78.03;99235.45;112022;1210;24112;-79
2021/09/07 01:25:40;;;;;;;14.20;8.30;;;;;;;8.96;78.12;99233.02;111664;1214;22456;-79
2021/09/07 01:28:12;;;;;;;16.70;9.50;;;;;;;8.99;77.97;99232.20;111951;1214;23099;-80
2021/09/07 01:30:40;;;;;;;18.60;10.40;;;;;;;9.00;77.85;99229.64;111896;1211;22470;-79
2021/09/07 01:33:07;;;;;;;14.30;8.00;;;;;;;8.98;77.84;99226.10;111933;1211;22447;-80
2021/09/07 01:35:34;;;;;;;15.80;8.30;;;;;;;8.97;77.94;99220.13;111884;1212;25187;-79
2021/09/07 01:38:15;;;;;;;13.60;7.70;;;;;;;8.96;77.92;99220.97;112024;1215;24172;-80
2021/09/07 01:40:42;;;;;;;14.90;8.30;;;;;;;8.97;77.83;99226.11;111992;1211;22495;-80
2021/09/07 01:43:19;;;;;;;15.40;8.30;;;;;;;8.98;77.89;99223.59;112001;1212;22922;-80
2021/09/07 01:45:47;;;;;;;13.50;8.50;;;;;;;8.99;78.03;99221.87;112152;1210;24182;-79
2021/09/07 01:48:16;;;;;;;16.10;8.50;;;;;;;8.99;77.84;99220.63;112000;1211;22454;-80
2021/09/07 01:50:57;;;;;;;18.50;9.50;;;;;;;8.99;77.68;99226.22;112016;1215;22471;-80
2021/09/07 01:53:24;;;;;;;12.80;8.40;;;;;;;8.98;77.74;99228.73;112148;1212;23568;-80
2021/09/07 01:55:52;;;;;;;11.60;6.60;;;;;;;8.93;77.90;99229.50;111949;1212;24199;-80
2021/09/07 01:58:20;;;;;;;11.20;6.50;;;;;;;8.79;77.04;99234.90;112020;1211;25078;-80
2021/09/07 02:00:48;;;;;;;12.20;7.50;;;;;;;8.53;76.55;99238.70;111883;1212;23459;-79
2021/09/07 02:03:16;;;;;;;15.70;7.50;;;;;;;8.28;77.17;99237.24;111999;1205;22471;-79
2021/09/07 02:05:44;;;;;;;13.00;7.60;;;;;;;8.13;77.93;99239.83;112086;1212;25366;-80
2021/09/07 02:08:12;;;;;;;13.50;7.40;;;;;;;8.08;78.62;99235.31;112093;1211;24094;-79
2021/09/07 02:10:40;;;;;;;13.50;8.30;;;;;;;8.08;79.22;99233.05;112051;1211;22673;-80
2021/09/07 02:13:07;;;;;;;11.80;7.20;;;;;;;8.12;79.65;99226.62;111777;1212;25525;-80
2021/09/07 02:15:35;;;;;;;16.30;8.70;;;;;;;8.20;79.79;99223.36;111942;1211;25222;-80
2021/09/07 02:18:16;;;;;;;14.40;7.80;;;;;;;8.29;80.18;99220.42;111979;1212;25081;-79
2021/09/07 02:20:43;;;;;;;16.30;7.90;;;;;;;8.35;79.99;99221.29;112019;1213;22462;-80
2021/09/07 02:23:10;;;;;;;14.40;9.00;;;;;;;8.41;79.65;99221.49;111899;1212;22463;-80
2021/09/07 02:25:51;;;;;;;14.00;7.70;;;;;;;8.49;79.78;99217.37;111878;1213;25114;-80
2021/09/07 02:28:33;;;;;;;15.00;8.30;;;;;;;8.54;79.65;99218.98;111993;1211;24669;-79
2021/09/07 02:31:16;;;;;;;14.10;7.70;;;;;;;8.58;79.79;99220.27;111956;1211;25188;-79
2021/09/07 02:33:42;;;;;;;13.40;8.90;;;;;;;8.62;79.91;99221.05;112001;1212;23106;-79
2021/09/07 02:36:10;;;;;;;16.20;8.60;;;;;;;8.67;80.08;99221.20;112003;1212;24064;-79
2021/09/07 02:38:38;;;;;;;13.60;7.70;;;;;;;8.73;80.08;99223.40;111911;1211;22635;-79
2021/09/07 02:41:07;;;;;;;11.80;7.70;;;;;;;8.79;79.91;99222.50;111949;1212;25140;-79
2021/09/07 02:43:38;;;;;;;14.90;8.20;;;;;;;8.76;79.47;99222.14;112010;1212;22459;-79
2021/09/07 02:46:20;;;;;;;14.30;8.50;;;;;;;8.71;79.26;99217.95;111821;1212;25131;-79
2021/09/07 02:49:02;;;;;;;12.70;7.40;;;;;;;8.68;79.62;99214.30;111891;1211;25030;-79
2021/09/07 02:51:30;;;;;;;12.70;7.40;;;;;;;8.71;79.58;99212.08;111918;1212;25128;-79
2021/09/07 02:53:57;;;;;;;12.70;7.00;;;;;;;8.73;79.55;99217.09;111971;1212;24054;-79
2021/09/07 02:56:38;;;;;;;16.40;7.00;;;;;;;8.67;78.66;99219.58;111998;1212;25027;-79
2021/09/07 02:59:05;;;;;;;11.90;7.70;;;;;;;8.52;78.68;99216.61;112049;1211;22547;-79
2021/09/07 03:01:33;;;;;;;13.90;7.30;;;;;;;8.41;79.13;99217.70;112060;1212;25274;-79
2021/09/07 03:04:01;;;;;;;12.70;7.80;;;;;;;8.40;79.76;99214.69;111946;1211;25083;-79
2021/09/07 03:06:29;;;;;;;11.40;8.00;;;;;;;8.41;80.04;99220.45;111996;1212;24172;-79
2021/09/07 03:09:10;;;;;;;13.70;7.60;;;;;;;8.45;80.28;99217.88;111960;1211;25444;-79
2021/09/07 03:11:51;;;;;;;12.60;7.70;;;;;;;8.49;80.33;99221.00;111881;1212;23400;-79
2021/09/07 03:14:18;;;;;;;13.20;8.80;;;;;;;8.53;80.41;99218.65;111876;1212;22458;-79
2021/09/07 03:16:45;;;;;;;12.90;8.30;;;;;;;8.57;80.42;99219.06;111854;1219;24516;-79
2021/09/07 03:19:12;;;;;;;14.30;8.50;;;;;;;8.63;80.63;99216.08;111822;1212;24049;-79
2021/09/07 03:21:39;;;;;;;13.80;8.40;;;;;;;8.69;80.61;99216.56;111818;1213;24060;-79
2021/09/07 03:24:07;;;;;;;13.30;7.60;;;;;;;8.75;80.75;99215.04;112137;1212;23682;-79
2021/09/07 03:26:34;;;;;;;14.50;8.20;;;;;;;8.79;80.68;99208.75;111961;1211;22441;-79
2021/09/07 03:29:16;;;;;;;15.30;9.20;;;;;;;8.83;80.48;99214.67;111947;1212;22476;-79
2021/09/07 03:31:43;;;;;;;15.10;8.20;;;;;;;8.84;80.52;99217.64;111915;1211;22488;-79
2021/09/07 03:34:10;;;;;;;12.50;7.50;;;;;;;8.82;80.27;99216.17;112042;1212;23237;-79
2021/09/07 03:36:38;;;;;;;15.40;8.20;;;;;;;8.80;80.31;99215.81;111936;1212;22445;-79
2021/09/07 03:39:05;;;;;;;19.10;8.50;;;;;;;8.84;80.47;99215.77;111787;1212;22446;-79
2021/09/07 03:41:47;;;;;;;14.40;8.10;;;;;;;8.86;80.46;99210.94;111927;1211;22702;-79
2021/09/07 03:44:14;;;;;;;13.30;7.80;;;;;;;8.86;80.52;99208.77;112026;1212;22572;-79
2021/09/07 03:46:41;;;;;;;15.50;9.10;;;;;;;8.88;80.57;99210.42;111943;1212;22544;-79
2021/09/07 03:49:09;;;;;;;13.60;8.30;;;;;;;8.94;80.55;99210.23;112023;1212;24120;-79
2021/09/07 03:51:35;;;;;;;14.70;8.90;;;;;;;8.97;80.24;99208.72;111914;1211;23619;-79
2021/09/07 03:54:03;;;;;;;15.60;9.40;;;;;;;8.98;80.18;99210.34;111885;1212;25284;-79
2021/09/07 03:56:30;;;;;;;16.40;8.50;;;;;;;9.00;80.42;99208.38;111948;1212;22473;-78
2021/09/07 03:58:58;;;;;;;13.50;8.50;;;;;;;9.02;80.39;99210.80;111931;1211;24091;-79
2021/09/07 04:01:26;;;;;;;15.90;8.40;;;;;;;9.04;80.40;99208.86;111947;1212;22714;-79
2021/09/07 04:03:53;;;;;;;15.80;9.10;;;;;;;9.07;80.41;99211.05;111926;1205;22528;-79
2021/09/07 04:06:20;;;;;;;13.60;8.50;;;;;;;9.09;80.28;99207.15;111825;1207;24171;-79
2021/09/07 04:08:49;;;;;;;15.00;8.30;;;;;;;9.09;80.29;99204.44;111975;1212;23206;-78
2021/09/07 04:11:30;;;;;;;14.10;8.80;;;;;;;9.10;80.37;99203.43;111869;1211;25043;-79
2021/09/07 04:14:11;;;;;;;15.20;8.30;;;;;;;9.09;80.23;99201.38;111836;1218;25125;-79
2021/09/07 04:16:38;;;;;;;18.80;8.80;;;;;;;9.10;80.13;99207.65;111819;1212;22461;-79
2021/09/07 04:19:19;;;;;;;12.90;7.50;;;;;;;9.09;79.86;99213.01;111897;1211;22463;-79
2021/09/07 04:21:46;;;;;;;12.10;7.30;;;;;;;9.03;79.65;99219.14;111805;1213;23746;-79
2021/09/07 04:24:27;;;;;;;15.50;7.70;;;;;;;8.92;79.54;99214.09;111839;1212;22485;-79
2021/09/07 04:27:07;;;;;;;13.90;7.40;;;;;;;8.87;79.60;99216.87;111869;1212;22446;-79
2021/09/07 04:29:48;;;;;;;12.60;7.90;;;;;;;8.84;79.78;99217.63;111905;1212;24184;-79
2021/09/07 04:32:15;;;;;;;12.30;7.50;;;;;;;8.85;79.96;99215.50;111905;1218;22595;-79
2021/09/07 04:34:42;;;;;;;14.70;8.40;;;;;;;8.85;80.08;99214.83;111897;1212;22469;-79
2021/09/07 04:37:09;;;;;;;15.30;7.80;;;;;;;8.88;80.36;99215.40;111827;1212;25187;-79
2021/09/07 04:39:36;;;;;;;18.20;10.90;;;;;;;8.90;80.42;99216.30;111734;1212;22446;-79
2021/09/07 04:42:18;;;;;;;20.30;11.20;;;;;;;8.96;80.60;99217.59;111805;1215;22142;-79
2021/09/07 04:44:47;;;;;;;17.00;9.90;;;;;;;9.00;80.52;99219.83;111592;1215;25203;-79
2021/09/07 04:47:15;;;;;;;19.70;10.30;;;;;;;9.04;80.92;99222.56;111774;1212;22541;-79
2021/09/07 04:49:57;;;;;;;17.10;9.70;;;;;;;9.11;80.73;99220.27;111726;1212;24455;-79
2021/09/07 04:52:24;;;;;;;18.70;10.90;;;;;;;9.16;80.78;99221.63;111544;1215;22457;-79
2021/09/07 04:54:51;;;;;;;21.50;10.80;;;;;;;9.22;80.83;99225.27;111605;1212;24206;-79
2021/09/07 04:57:18;;;;;;;18.70;10.50;;;;;;;9.27;80.84;99221.69;111669;1205;22476;-79
2021/09/07 04:59:45;;;;;;;19.70;9.40;;;;;;;9.33;81.07;99219.91;111766;1212;22475;-79
2021/09/07 05:02:12;;;;;;;17.60;9.80;;;;;;;9.39;80.99;99218.03;112109;1212;25169;-79
2021/09/07 05:04:52;;;;;;;17.30;9.70;;;;;;;9.47;80.99;99217.59;111947;1212;22488;-79
2021/09/07 05:07:19;;;;;;;18.80;10.30;;;;;;;9.54;81.02;99218.39;111818;1212;24057;-78
2021/09/07 05:09:46;;;;;;;18.70;10.90;;;;;;;9.63;81.37;99221.59;111871;1211;22222;-78
2021/09/07 05:12:13;;;;;;;18.00;9.10;;;;;;;9.74;81.37;99226.51;111846;1211;24168;-78
2021/09/07 05:14:41;;;;;;;15.30;9.70;;;;;;;9.78;80.71;99232.90;111701;1213;24315;-79
2021/09/07 05:17:22;;;;;;;17.90;8.00;;;;;;;9.71;80.37;99227.02;111913;1212;24217;-78
2021/09/07 05:19:49;;;;;;;16.30;8.80;;;;;;;9.66;80.77;99226.05;111964;1212;25079;-79
2021/09/07 05:22:30;;;;;;;13.30;8.60;;;;;;;9.72;81.09;99219.15;111827;1212;22572;-79
2021/09/07 05:24:57;;;;;;;17.90;9.90;;;;;;;9.80;81.37;99219.54;111877;1204;25134;-79
2021/09/07 05:27:24;;;;;;;14.80;9.50;;;;;;;9.91;81.63;99221.09;111873;1203;22542;-79
2021/09/07 05:29:51;;;;;;;15.90;8.80;;;;;;;10.00;81.32;99224.48;111945;1212;25087;-79
2021/09/07 05:32:32;;;;;;;15.30;8.90;;;;;;;10.09;81.38;99222.81;111999;1212;22473;-78
2021/09/07 05:34:59;;;;;;;15.10;8.40;;;;;;;10.16;81.41;99227.77;111984;1212;25458;-79
2021/09/07 05:37:26;;;;;;;16.80;9.50;;;;;;;10.26;81.29;99222.37;111892;1212;24567;-79
2021/09/07 05:39:53;;;;;;;17.90;11.90;;;;;;;10.36;81.36;99225.45;111870;1212;22580;-79
2021/09/07 05:42:20;;;;;;;16.70;10.10;;;;;;;10.45;81.05;99230.52;111914;1212;26300;-79
2021/09/07 05:44:47;;;;;;;13.40;8.30;;;;;;;10.50;81.21;99228.95;112369;1212;22624;-79
2021/09/07 05:47:27;;;;;;;18.10;8.90;;;;;;;10.50;80.66;99224.17;112314;1212;22479;-79
2021/09/07 05:49:54;;;;;;;20.00;9.80;;;;;;;10.52;80.90;99220.47;112212;1213;23592;-79
2021/09/07 05:52:21;;;;;;;17.80;9.90;;;;;;;10.62;81.09;99224.66;112211;1212;22568;-79
2021/09/07 05:54:48;;;;;;;23.80;12.90;;;;;;;10.73;81.33;99226.18;112284;1205;22463;-79
2021/09/07 05:57:15;;;;;;;22.00;13.70;;;;;;;10.83;80.75;99223.47;111927;1212;25078;-78
2021/09/07 05:59:56;;;;;;;16.50;9.80;;;;;;;10.92;80.34;99228.48;112656;1213;22570;-79
2021/09/07 06:02:23;;;;;;;22.90;9.90;;;;;;;10.91;80.10;99229.96;111953;1211;25133;-79
2021/09/07 06:05:05;;;;;;;17.40;9.40;;;;;;;10.89;80.32;99225.66;111928;1211;25017;-78
2021/09/07 06:07:33;;;;;;;17.20;9.90;;;;;;;10.93;80.27;99229.23;112027;1213;22562;-79
2021/09/07 06:10:13;;;;;;;21.00;10.60;;;;;;;10.97;80.33;99227.88;112147;1219;23179;-79
2021/09/07 06:12:41;;;;;;;17.90;10.70;;;;;;;10.98;80.19;99220.65;112199;1212;23167;-79
2021/09/07 06:15:09;;;;;;;17.90;11.00;;;;;;;11.02;80.40;99216.91;112200;1211;22564;-79
2021/09/07 06:17:36;;;;;;;15.10;9.30;;;;;;;11.07;80.28;99217.94;112456;1210;22461;-79
2021/09/07 06:20:05;;;;;;;19.10;9.60;;;;;;;11.10;80.75;99224.90;112406;1212;22448;-79
2021/09/07 06:22:31;;;;;;;14.00;8.60;;;;;;;11.11;80.88;99230.92;112138;1218;22746;-78
2021/09/07 06:24:58;;;;;;;17.50;10.70;;;;;;;11.09;81.21;99231.25;112442;1204;25084;-79
2021/09/07 06:27:39;;;;;;;19.30;11.10;;;;;;;11.12;81.10;99231.71;112375;1214;22467;-79
2021/09/07 06:30:07;;;;;;;17.70;10.40;;;;;;;11.16;81.43;99234.02;112280;1213;22496;-79
2021/09/07 06:32:48;;;;;;;16.70;10.90;;;;;;;11.22;81.06;99230.73;112520;1210;24172;-79
2021/09/07 06:35:28;;;;;;;24.20;11.20;;;;;;;11.31;81.26;99231.77;112403;1213;24101;-79
2021/09/07 06:37:56;;;;;;;28.90;12.70;;;;;;;11.41;81.18;99233.50;112312;1216;22502;-79
2021/09/07 06:40:26;;;;;;;21.80;12.40;;;;;;;11.49;81.07;99236.21;112370;1211;22473;-79
2021/09/07 06:42:55;;;;;;;23.30;12.50;;;;;;;11.56;81.13;99238.33;112369;1213;22462;-79
2021/09/07 06:45:22;;;;;;;22.60;12.80;;;;;;;11.62;81.02;99237.52;112576;1213;22585;-79
2021/09/07 06:47:49;;;;;;;22.80;13.50;;;;;;;11.70;81.33;99239.16;112306;1214;22471;-79
2021/09/07 06:50:16;;;;;;;21.10;12.10;;;;;;;11.84;81.07;99230.73;112411;1212;22438;-79
2021/09/07 06:52:43;;;;;;;22.40;12.60;;;;;;;12.02;81.17;99227.98;112443;1212;24265;-80
2021/09/07 06:55:24;;;;;;;19.90;12.20;;;;;;;12.23;81.09;99228.98;112393;1213;22451;-81
2021/09/07 06:57:51;;;;;;;25.10;14.60;;;;;;;12.41;80.97;99227.77;112428;1210;24076;-80
2021/09/07 07:00:18;;;;;;;24.70;14.20;;;;;;;12.57;80.39;99226.81;112401;1210;22867;-80
2021/09/07 07:02:45;;;;;;;21.80;13.40;;;;;;;12.73;79.97;99231.05;112556;1210;22455;-80
2021/09/07 07:05:11;;;;;;;23.70;13.80;;;;;;;12.88;79.50;99228.17;112421;1211;23181;-80
2021/09/07 07:07:52;;;;;;;25.80;15.20;;;;;;;13.04;79.09;99234.59;112241;1211;22478;-80
2021/09/07 07:10:19;;;;;;;24.00;15.20;;;;;;;13.17;78.62;99226.09;112345;1218;22473;-80
2021/09/07 07:13:00;;;;;;;23.40;14.30;;;;;;;13.30;78.56;99223.20;112360;1212;22458;-80
2021/09/07 07:15:27;;;;;;;26.50;14.50;;;;;;;13.43;78.18;99229.80;112472;1212;27378;-80
2021/09/07 07:17:54;;;;;;;28.00;14.90;;;;;;;13.54;77.60;99234.83;112655;1216;24256;-80
2021/09/07 07:20:21;;;;;;;27.30;14.60;;;;;;;13.60;77.00;99241.03;112327;1211;22455;-80
2021/09/07 07:22:50;;;;;;;24.10;15.20;;;;;;;13.67;76.84;99239.02;112238;1213;23030;-80
2021/09/07 07:25:17;;;;;;;30.70;16.10;;;;;;;13.77;76.61;99234.11;112007;1213;25087;-80
2021/09/07 07:27:45;;;;;;;23.80;15.40;;;;;;;13.86;76.39;99230.54;112351;1213;22562;-80
2021/09/07 07:30:12;;;;;;;30.30;15.90;;;;;;;14.03;76.89;99232.99;112094;1214;22530;-82
2021/09/07 07:32:40;;;;;;;21.30;12.50;;;;;;;14.21;76.70;99232.92;112064;1216;25056;-81
2021/09/07 07:35:07;;;;;;;20.10;11.50;;;;;;;14.43;75.28;99234.50;112173;1218;22728;-79
2021/09/07 07:37:34;;;;;;;19.40;11.60;;;;;;;14.62;73.97;99233.71;112038;1216;22469;-91
2021/09/07 07:40:01;;;;;;;22.10;11.70;;;;;;;14.80;73.40;99236.38;112168;1216;24054;-82
2021/09/07 07:42:42;;;;;;;21.10;10.80;;;;;;;15.03;72.68;99240.61;112350;1212;22471;-81
2021/09/07 07:45:10;;;;;;;16.40;10.10;;;;;;;15.19;71.80;99244.48;112138;1212;22588;-82
2021/09/07 07:47:37;;;;;;;17.40;9.80;;;;;;;15.33;71.51;99244.61;112295;1210;22539;-80
2021/09/07 07:50:04;;;;;;;18.40;9.80;;;;;;;15.45;71.16;99242.92;112072;1212;26285;-79
2021/09/07 07:52:31;;;;;;;23.50;12.80;;;;;;;15.51;70.48;99242.79;112181;1216;22932;-79
2021/09/07 07:55:12;;;;;;;22.80;11.80;;;;;;;15.58;69.99;99237.74;112187;1211;25794;-79
2021/09/07 07:57:39;;;;;;;19.30;10.40;;;;;;;15.70;69.62;99236.00;112114;1211;22576;-79
2021/09/07 08:00:20;;;;;;;17.10;11.00;;;;;;;15.86;68.87;99241.90;112212;1213;22471;-79
2021/09/07 08:03:00;;;;;;;27.40;11.10;;;;;;;16.04;69.33;99241.17;112017;1218;22484;-80
2021/09/07 08:05:27;;;;;;;21.30;10.50;;;;;;;16.20;68.38;99239.45;111915;1214;25134;-79
2021/09/07 08:07:54;;;;;;;21.60;10.10;;;;;;;16.30;68.04;99245.55;112104;1205;25250;-79
2021/09/07 08:10:21;;;;;;;22.90;10.50;;;;;;;16.40;67.41;99249.65;112132;1213;25422;-79
2021/09/07 08:12:48;;;;;;;25.00;11.00;;;;;;;16.56;67.42;99249.04;112118;1216;24058;-79
2021/09/07 08:15:15;;;;;;;22.00;10.80;;;;;;;16.72;66.77;99252.94;111927;1214;22516;-79
2021/09/07 08:17:56;;;;;;;22.30;10.90;;;;;;;16.88;65.50;99251.53;111959;1216;22501;-79
2021/09/07 08:20:24;;;;;;;24.00;10.70;;;;;;;16.98;64.73;99251.41;112662;1211;22359;-79
2021/09/07 08:22:51;;;;;;;26.20;9.50;;;;;;;17.14;64.21;99251.48;113258;1219;22452;-77
2021/09/07 08:25:18;;;;;;;24.60;10.20;;;;;;;17.25;63.57;99253.67;112770;1211;23091;-77
2021/09/07 08:27:59;;;;;;;19.10;10.50;;;;;;;17.42;62.66;99253.34;112318;1219;22462;-79
2021/09/07 08:30:26;;;;;;;19.00;9.80;;;;;;;17.62;61.89;99252.18;112550;1216;22950;-80
2021/09/07 08:32:54;;;;;;;25.20;10.10;;;;;;;17.84;61.65;99252.52;112454;1216;23169;-80
2021/09/07 08:35:21;;;;;;;20.40;9.70;;;;;;;18.03;61.16;99255.20;112512;1212;22497;-79
2021/09/07 08:38:02;;;;;;;19.00;9.90;;;;;;;18.11;59.21;99252.61;111856;1219;22574;-79
2021/09/07 08:40:30;;;;;;;23.00;10.70;;;;;;;18.12;59.22;99253.48;112106;1211;22871;-79
2021/09/07 08:43:01;;;;;;;18.60;9.60;;;;;;;18.14;58.70;99247.05;112153;1216;22476;-80
2021/09/07 08:45:28;;;;;;;20.80;9.20;;;;;;;18.18;58.02;99249.98;111963;1215;22859;-80
2021/09/07 08:48:01;;;;;;;23.00;9.70;;;;;;;18.20;58.45;99250.64;112181;1210;22587;-79
2021/09/07 08:50:43;;;;;;;21.00;9.00;;;;;;;18.23;59.04;99257.69;111888;1219;22483;-79
2021/09/07 08:53:24;;;;;;;23.10;10.30;;;;;;;18.27;59.72;99256.48;111981;1219;22477;-80
2021/09/07 08:55:51;;;;;;;22.10;10.30;;;;;;;18.28;58.95;99250.73;112050;1219;24184;-79
2021/09/07 08:58:18;;;;;;;26.50;9.50;;;;;;;18.37;58.70;99252.02;112072;1216;22555;-79
2021/09/07 09:01:11;;;;;;;16.60;9.10;;;;;;;18.48;57.42;99255.97;111990;1211;22484;-79
2021/09/07 09:03:47;;;;;;;24.60;9.90;;;;;;;18.57;57.88;99259.48;112452;1212;22587;-80
2021/09/07 09:06:25;;;;;;;21.10;9.40;;;;;;;18.67;56.60;99259.69;111940;1211;22959;-79
2021/09/07 09:09:07;;;;;;;23.70;9.00;;;;;;;18.80;56.91;99260.00;111920;1214;22812;-79
2021/09/07 09:11:54;;;;;;;28.50;8.50;;;;;;;18.91;57.32;99260.11;112155;1211;22608;-79
2021/09/07 09:14:43;;;;;;;23.10;7.80;;;;;;;18.96;55.61;99253.29;112001;1212;24114;-79
2021/09/07 09:17:16;;;;;;;13.90;7.80;;;;;;;18.99;55.20;99254.11;112133;1215;22927;-79
2021/09/07 09:20:08;;;;;;;19.70;8.00;;;;;;;19.08;54.75;99254.86;112269;1213;22575;-79
2021/09/07 09:22:52;;;;;;;18.00;7.70;;;;;;;19.20;53.85;99250.52;111909;1215;22491;-79
2021/09/07 09:25:19;;;;;;;26.60;8.80;;;;;;;19.26;53.92;99249.23;112110;1214;22475;-79
2021/09/07 09:27:48;;;;;;;18.20;7.40;;;;;;;19.30;53.95;99245.10;112024;1216;24101;-79
2021/09/07 09:30:23;;;;;;;19.30;7.50;;;;;;;19.39;54.11;99246.39;112043;1213;25230;-79
2021/09/07 09:32:52;;;;;;;14.30;6.80;;;;;;;19.49;53.68;99245.95;112069;1213;25128;-79
2021/09/07 09:35:45;;;;;;;17.60;7.70;;;;;;;19.60;54.09;99246.83;112003;1218;22600;-78
2021/09/07 09:38:17;;;;;;;19.50;8.10;;;;;;;19.68;53.98;99249.17;112058;1216;22466;-78
2021/09/07 09:40:51;;;;;;;14.10;7.20;;;;;;;19.79;53.90;99244.59;111949;1214;23119;-78
2021/09/07 09:43:43;;;;;;;13.10;7.70;;;;;;;19.90;54.04;99236.50;111767;1219;25153;-78
2021/09/07 09:46:39;;;;;;;15.40;8.00;;;;;;;19.85;52.89;99234.27;111873;1214;26874;-78
2021/09/07 09:49:27;;;;;;;15.70;8.10;;;;;;;19.73;52.75;99233.34;111946;1214;25232;-78
2021/09/07 09:52:08;;;;;;;20.60;8.70;;;;;;;19.62;53.69;99234.83;111942;1213;25224;-78
2021/09/07 09:54:38;;;;;;;19.20;8.30;;;;;;;19.55;54.00;99235.59;111876;1219;22431;-78
2021/09/07 09:57:06;;;;;;;17.70;7.80;;;;;;;19.62;53.98;99239.03;111916;1215;22463;-78
2021/09/07 09:59:33;;;;;;;16.40;8.00;;;;;;;19.74;53.20;99235.84;111799;1216;22486;-78
2021/09/07 10:02:01;;;;;;;22.80;8.50;;;;;;;19.87;53.74;99235.86;112133;1215;22475;-78
2021/09/07 10:04:30;;;;;;;14.90;7.40;;;;;;;19.98;53.63;99230.14;111914;1213;26359;-77
2021/09/07 10:06:57;;;;;;;17.80;8.60;;;;;;;20.08;54.38;99231.89;112081;1216;22978;-77
2021/09/07 10:09:41;;;;;;;15.30;7.10;;;;;;;20.21;53.12;99232.61;111926;1213;25199;-78
2021/09/07 10:12:17;;;;;;;15.80;6.80;;;;;;;20.30;52.07;99228.10;111901;1212;22458;-78
2021/09/07 10:15:01;;;;;;;13.20;7.30;;;;;;;20.44;52.37;99226.20;111976;1216;22468;-78
2021/09/07 10:17:51;;;;;;;15.20;7.10;;;;;;;20.65;52.36;99222.58;111924;1212;22473;-78
2021/09/07 10:20:47;;;;;;;15.20;7.00;;;;;;;20.80;51.54;99220.16;112101;1214;22501;-77
2021/09/07 10:26:44;;;;;;;8.40;5.70;;;;;;;21.20;51.10;99218.91;111880;1213;22516;-78
2021/09/07 10:29:23;;;;;;;11.20;6.40;;;;;;;21.36;51.19;99214.00;111914;1216;23790;-78
2021/09/07 10:32:23;;;;;;;11.30;6.20;;;;;;;21.51;50.49;99214.88;112016;1220;22974;-78
2021/09/07 10:35:10;;;;;;;9.50;6.10;;;;;;;21.65;50.99;99213.45;111903;1214;24141;-78
2021/09/07 10:38:11;;;;;;;8.50;5.80;;;;;;;21.73;50.67;99210.83;111924;1213;24143;-78
2021/09/07 10:40:52;;;;;;;8.40;5.60;;;;;;;21.85;50.64;99205.27;112034;1216;22941;-78
2021/09/07 10:43:53;;;;;;;10.90;6.10;;;;;;;21.96;49.48;99201.99;111854;1218;24058;-78
2021/09/07 10:46:43;;;;;;;12.70;6.40;;;;;;;22.01;48.85;99205.90;111891;1212;22518;-78
2021/09/07 10:49:45;;;;;;;10.10;6.20;;;;;;;22.07;48.95;99206.25;111912;1216;22466;-78
2021/09/07 10:52:29;;;;;;;12.60;5.60;;;;;;;22.25;48.80;99204.52;111875;1212;23196;-78
2021/09/07 10:55:10;;;;;;;12.50;6.30;;;;;;;22.39;49.30;99202.85;111912;1213;24109;-78
2021/09/07 10:57:43;;;;;;;8.50;5.50;;;;;;;22.53;48.73;99203.74;111935;1216;22446;-78
2021/09/07 11:00:19;;;;;;;9.30;5.40;;;;;;;22.66;47.54;99206.55;111846;1205;22456;-78
2021/09/07 11:03:08;;;;;;;7.60;5.80;;;;;;;22.79;47.10;99202.53;111656;1214;22692;-78
2021/09/07 11:05:41;;;;;;;8.10;5.70;;;;;;;22.91;47.28;99200.29;111884;1212;22477;-78
2021/09/07 11:08:14;;;;;;;7.30;5.40;;;;;;;23.03;46.73;99198.73;111888;1216;25259;-78
2021/09/07 11:10:52;;;;;;;9.30;5.60;;;;;;;23.13;47.04;99197.70;111967;1209;22835;-79
2021/09/07 11:13:32;;;;;;;10.50;5.70;;;;;;;23.23;46.04;99200.67;112006;1216;22470;-78
2021/09/07 11:16:13;;;;;;;12.80;6.30;;;;;;;23.28;45.01;99200.21;111752;1219;22473;-78
2021/09/07 11:19:01;;;;;;;8.90;5.70;;;;;;;23.35;45.44;99197.63;111974;1219;22973;-81
2021/09/07 11:21:42;;;;;;;12.90;6.70;;;;;;;23.41;45.72;99192.71;112179;1212;24031;-80
2021/09/07 11:24:19;;;;;;;9.70;6.80;;;;;;;23.51;45.60;99192.65;112325;1212;23792;-80
2021/09/07 11:26:46;;;;;;;8.40;6.10;;;;;;;23.63;45.81;99192.15;112037;1216;22502;-81
2021/09/07 11:29:13;;;;;;;13.10;6.00;;;;;;;23.75;45.70;99188.92;112109;1216;22452;-80
2021/09/07 11:31:40;;;;;;;14.70;7.10;;;;;;;23.86;45.65;99189.80;112172;1212;22842;-81
2021/09/07 11:34:15;;;;;;;9.10;6.90;;;;;;;23.87;45.16;99193.96;111900;1213;25236;-79
2021/09/07 11:36:42;;;;;;;10.70;6.80;;;;;;;23.68;45.08;99192.55;112032;1213;22606;-80
2021/09/07 11:39:19;;;;;;;10.70;6.40;;;;;;;23.53;45.94;99190.56;112069;1216;22489;-80
2021/09/07 11:41:46;;;;;;;10.60;6.60;;;;;;;23.35;45.66;99184.02;112067;1212;22492;-81
2021/09/07 11:44:15;;;;;;;12.60;6.60;;;;;;;23.24;46.32;99183.49;112205;1212;22703;-81
2021/09/07 11:47:04;;;;;;;10.40;7.40;;;;;;;23.23;46.41;99177.98;112095;1215;24131;-81
2021/09/07 11:49:31;;;;;;;10.20;6.80;;;;;;;23.39;47.08;99175.59;112216;1212;22467;-81